Time;durP1;ratioP1;P1;durP2;ratioP2;P2;SDS_P1;SDS_P2;PMS_P1;PMS_P2;Temp;Humidity;BMP_temperature;BMP_pressure;BME280_temperature;BME280_humidity;BME280_pressure;Samples;Min_cycle;Max_cycle;Signal;HPM_P1;HPM_P2
2022/10/23 00:01:14;;;;;;;45.33;26.35;;;;;;;11.07;75.91;98761.56;5089274;28;20405;-71
2022/10/23 00:03:40;;;;;;;43.40;25.05;;;;;;;11.07;76.47;98763.53;5088297;28;20024;-73
2022/10/23 00:06:06;;;;;;;43.53;25.83;;;;;;;11.01;76.51;98763.56;5088769;28;20054;-72
2022/10/23 00:08:31;;;;;;;50.90;27.98;;;;;;;10.99;76.04;98763.03;5088811;28;20038;-72
2022/10/23 00:10:56;;;;;;;45.60;26.88;;;;;;;10.98;76.21;98764.16;5089452;28;20370;-72
2022/10/23 00:13:22;;;;;;;40.95;25.55;;;;;;;10.96;76.56;98763.63;5080674;28;20064;-72
2022/10/23 00:15:47;;;;;;;47.53;28.10;;;;;;;10.95;75.92;98761.19;5084162;28;20286;-72
2022/10/23 00:18:13;;;;;;;40.22;24.83;;;;;;;10.93;76.25;98763.41;5088577;28;20036;-72
2022/10/23 00:20:38;;;;;;;44.42;25.67;;;;;;;10.91;76.63;98762.88;5088727;28;20032;-72
2022/10/23 00:23:03;;;;;;;45.15;25.42;;;;;;;10.89;76.13;98765.91;5088972;28;20030;-71
2022/10/23 00:25:29;;;;;;;40.90;23.63;;;;;;;10.83;76.62;98765.13;5089046;28;20031;-71
2022/10/23 00:27:54;;;;;;;41.85;24.25;;;;;;;10.82;76.73;98766.25;5083856;28;20099;-72
2022/10/23 00:30:20;;;;;;;45.15;26.90;;;;;;;10.81;76.91;98761.03;5069080;28;20025;-72
2022/10/23 00:32:45;;;;;;;44.80;24.77;;;;;;;10.78;76.71;98765.19;5050614;28;20044;-72
2022/10/23 00:35:11;;;;;;;39.88;23.85;;;;;;;10.78;76.95;98764.38;5068313;28;20025;-73
2022/10/23 00:37:36;;;;;;;44.00;25.05;;;;;;;10.76;76.77;98766.59;5072063;28;20028;-72
2022/10/23 00:40:02;;;;;;;38.47;23.05;;;;;;;10.76;76.85;98761.91;5060857;28;20064;-71
2022/10/23 00:42:28;;;;;;;35.95;22.50;;;;;;;10.76;76.51;98761.91;5061482;28;20565;-71
2022/10/23 00:44:53;;;;;;;37.92;23.55;;;;;;;10.78;76.31;98769.88;5061223;28;20021;-72
2022/10/23 00:47:18;;;;;;;35.80;22.15;;;;;;;10.75;76.61;98767.72;5067484;28;20032;-71
2022/10/23 00:49:44;;;;;;;36.25;21.75;;;;;;;10.77;77.09;98771.78;5061359;28;20028;-71
2022/10/23 00:52:11;;;;;;;36.88;21.95;;;;;;;10.78;76.74;98764.38;5088882;28;20090;-71
2022/10/23 00:54:40;;;;;;;35.40;20.67;;;;;;;10.79;76.29;98774.25;5084801;28;20032;-72
2022/10/23 00:57:10;;;;;;;35.55;22.17;;;;;;;10.80;77.14;98778.63;5088830;28;20020;-71
2022/10/23 00:59:35;;;;;;;;;;;;;;;10.79;76.00;98780.53;5088921;28;20036;-72
2022/10/23 01:02:01;;;;;;;37.92;23.83;;;;;;;10.79;76.33;98777.00;5088608;28;19935;-71
2022/10/23 01:04:27;;;;;;;41.75;23.98;;;;;;;10.74;76.87;98779.78;5072745;28;20016;-71
2022/10/23 01:07:00;;;;;;;41.42;24.08;;;;;;;10.72;77.69;98783.63;5054422;28;20550;-71
2022/10/23 01:09:32;;;;;;;44.08;24.45;;;;;;;10.69;77.02;98775.97;5073017;28;20051;-71
2022/10/23 01:12:18;;;;;;;40.72;23.10;;;;;;;10.70;76.69;98785.00;5057806;28;20436;-71
2022/10/23 01:14:54;;;;;;;39.30;23.33;;;;;;;10.68;76.79;98796.28;5092413;28;20306;-71
2022/10/23 01:17:40;;;;;;;43.58;26.20;;;;;;;10.67;77.02;98791.91;5082587;28;20047;-71
2022/10/23 01:20:21;;;;;;;40.83;24.17;;;;;;;10.66;77.32;98779.31;5072669;28;20032;-73
2022/10/23 01:22:53;;;;;;;40.05;23.83;;;;;;;10.69;77.12;98783.38;5072619;28;20025;-73
2022/10/23 01:25:42;;;;;;;38.60;23.15;;;;;;;10.66;77.22;98775.72;5054729;28;20456;-72
2022/10/23 01:28:15;;;;;;;42.33;23.70;;;;;;;10.65;77.04;98779.56;5075956;28;20027;-73
2022/10/23 01:30:43;;;;;;;41.35;22.77;;;;;;;10.63;76.79;98777.13;5092792;28;20497;-73
2022/10/23 01:33:16;;;;;;;38.60;23.17;;;;;;;10.64;77.51;98780.69;5092926;28;20059;-71
2022/10/23 01:36:03;;;;;;;38.50;23.50;;;;;;;10.61;78.10;98776.59;5075003;28;20028;-72
2022/10/23 01:38:43;;;;;;;41.13;23.90;;;;;;;10.61;77.51;98782.09;5092461;28;20023;-71
2022/10/23 01:41:32;;;;;;;37.60;23.02;;;;;;;10.59;78.39;98773.34;5093152;28;20528;-72
2022/10/23 01:44:07;;;;;;;38.28;22.27;;;;;;;10.61;77.88;98784.84;5093288;28;20032;-72
2022/10/23 01:46:37;;;;;;;40.55;23.55;;;;;;;10.61;77.74;98787.56;5093253;28;20032;-71
2022/10/23 01:49:06;;;;;;;40.65;22.80;;;;;;;10.63;77.04;98781.78;5093807;28;20053;-71
2022/10/23 01:51:35;;;;;;;40.05;23.60;;;;;;;10.66;77.66;98793.03;5094088;28;20035;-71
2022/10/23 01:54:04;;;;;;;40.88;24.13;;;;;;;10.66;77.58;98789.44;5075597;28;20103;-71
2022/10/23 01:56:33;;;;;;;38.50;23.27;;;;;;;10.66;77.92;98792.19;5093640;28;20048;-71
2022/10/23 01:59:03;;;;;;;37.10;22.30;;;;;;;10.65;77.49;98791.38;5093490;28;20031;-70
2022/10/23 02:01:32;;;;;;;38.53;21.83;;;;;;;10.66;77.72;98789.44;5093919;28;20089;-71
2022/10/23 02:04:02;;;;;;;38.88;22.45;;;;;;;10.67;77.99;98796.56;5084114;28;20489;-70
2022/10/23 02:06:27;;;;;;;39.22;21.52;;;;;;;10.67;78.45;98791.91;5069847;28;20027;-71
2022/10/23 02:08:53;;;;;;;38.20;21.48;;;;;;;10.66;77.92;98800.41;5073802;28;20032;-71
2022/10/23 02:11:20;;;;;;;37.45;21.85;;;;;;;10.63;78.31;98792.75;5072258;28;20029;-72
2022/10/23 02:14:21;;;;;;;34.63;20.20;;;;;;;10.64;78.97;98791.66;5072051;28;20020;-71
2022/10/23 02:16:51;;;;;;;35.60;19.77;;;;;;;10.65;78.13;98799.59;5024890;28;20114;-72
2022/10/23 02:19:22;;;;;;;35.25;20.38;;;;;;;10.65;78.47;98785.06;5072615;28;20113;-71
2022/10/23 02:22:09;;;;;;;33.03;18.40;;;;;;;10.64;78.46;98791.66;5072156;28;20033;-71
2022/10/23 02:24:47;;;;;;;32.33;18.52;;;;;;;10.62;77.75;98791.13;5071982;28;20116;-71
2022/10/23 02:27:17;;;;;;;29.77;17.40;;;;;;;10.60;77.64;98796.09;5071817;28;20494;-71
2022/10/23 02:29:48;;;;;;;31.65;16.63;;;;;;;10.58;77.99;98796.38;5090406;28;20093;-72
2022/10/23 02:32:17;;;;;;;28.98;16.45;;;;;;;10.55;78.33;98796.94;5092177;28;20044;-71
2022/10/23 02:34:43;;;;;;;28.33;16.92;;;;;;;10.54;78.47;98798.06;5074112;28;20037;-71
2022/10/23 02:37:08;;;;;;;28.98;16.70;;;;;;;10.52;78.20;98800.28;5091778;28;20031;-70
2022/10/23 02:39:33;;;;;;;29.10;16.85;;;;;;;10.49;78.56;98793.44;5091806;28;20032;-71
2022/10/23 02:42:09;;;;;;;29.23;16.92;;;;;;;10.47;78.08;98797.56;5092428;28;20054;-72
2022/10/23 02:44:48;;;;;;;29.42;16.15;;;;;;;10.45;78.12;98795.13;5091931;28;20028;-71
2022/10/23 02:47:54;;;;;;;28.95;16.65;;;;;;;10.42;77.59;98799.25;5091524;28;20055;-71
2022/10/23 02:50:38;;;;;;;27.33;15.27;;;;;;;10.43;78.11;98797.34;5091542;28;20462;-71
2022/10/23 02:53:09;;;;;;;28.15;15.63;;;;;;;10.42;78.39;98810.22;5092124;28;20048;-71
2022/10/23 02:55:59;;;;;;;26.80;15.98;;;;;;;10.42;78.28;98801.19;5088839;28;20517;-71
2022/10/23 02:58:27;;;;;;;;;;;;;;;10.43;78.49;98811.84;5091463;28;20119;-71
2022/10/23 03:01:02;;;;;;;27.10;16.13;;;;;;;10.43;78.37;98811.03;5073591;28;19934;-71
2022/10/23 03:03:35;;;;;;;28.92;16.05;;;;;;;10.43;78.39;98808.31;5092233;28;20082;-71
2022/10/23 03:06:01;;;;;;;28.70;16.02;;;;;;;10.46;78.64;98820.59;5088952;28;20095;-70
2022/10/23 03:08:26;;;;;;;29.30;16.80;;;;;;;10.50;78.51;98813.44;5091569;28;20115;-70
2022/10/23 03:10:52;;;;;;;31.98;18.75;;;;;;;10.54;79.57;98812.59;5090656;28;20035;-69
2022/10/23 03:13:18;;;;;;;33.10;18.45;;;;;;;10.56;79.29;98815.88;5091876;28;20109;-70
2022/10/23 03:15:43;;;;;;;30.33;16.50;;;;;;;10.61;79.30;98819.66;5091763;28;20027;-71
2022/10/23 03:18:09;;;;;;;31.30;17.92;;;;;;;10.62;79.51;98813.91;5091673;28;20020;-71
2022/10/23 03:20:34;;;;;;;30.58;17.00;;;;;;;10.65;79.62;98812.50;5091538;28;20081;-70
2022/10/23 03:22:59;;;;;;;37.03;18.95;;;;;;;10.68;79.51;98814.66;5090554;28;20028;-71
2022/10/23 03:25:25;;;;;;;31.83;17.50;;;;;;;10.70;79.86;98815.19;5090761;28;20056;-70
2022/10/23 03:27:50;;;;;;;32.80;18.63;;;;;;;10.71;79.54;98820.41;5087315;28;20035;-71
2022/10/23 03:30:16;;;;;;;36.67;19.60;;;;;;;10.74;78.92;98821.75;5071253;28;20021;-71
2022/10/23 03:32:41;;;;;;;37.33;20.80;;;;;;;10.77;79.51;98806.66;5069937;28;20094;-70
2022/10/23 03:35:07;;;;;;;39.03;21.20;;;;;;;10.80;79.50;98804.13;5068084;28;20522;-70
2022/10/23 03:37:33;;;;;;;34.35;18.88;;;;;;;10.85;79.08;98808.75;5071532;28;20032;-71
2022/10/23 03:39:58;;;;;;;31.90;18.98;;;;;;;10.87;79.65;98812.00;5071562;28;20113;-71
2022/10/23 03:42:24;;;;;;;34.95;19.38;;;;;;;10.90;79.41;98808.69;5071156;28;20070;-70
2022/10/23 03:44:49;;;;;;;32.53;18.35;;;;;;;10.94;79.06;98808.94;5070653;28;20074;-70
2022/10/23 03:47:15;;;;;;;36.85;19.25;;;;;;;10.97;79.41;98814.66;5064331;28;20518;-71
2022/10/23 03:49:40;;;;;;;35.75;19.85;;;;;;;11.01;79.07;98810.22;5070591;28;20024;-71
2022/10/23 03:52:06;;;;;;;31.95;17.60;;;;;;;11.04;79.47;98814.31;5071053;28;20043;-71
2022/10/23 03:54:32;;;;;;;35.10;18.17;;;;;;;11.06;78.77;98812.09;5076998;28;20032;-71
2022/10/23 03:56:58;;;;;;;35.00;18.05;;;;;;;11.07;79.15;98808.25;5090633;28;20035;-71
2022/10/23 03:59:24;;;;;;;35.60;18.80;;;;;;;11.08;79.14;98800.84;5090990;28;20039;-71
2022/10/23 04:01:49;;;;;;;33.25;18.10;;;;;;;11.10;78.86;98795.88;5088301;28;20473;-71
2022/10/23 04:04:15;;;;;;;34.35;18.45;;;;;;;11.12;79.31;98801.91;5060377;28;20031;-71
2022/10/23 04:06:40;;;;;;;36.35;18.23;;;;;;;11.12;79.16;98799.94;5090368;28;20067;-71
2022/10/23 04:09:06;;;;;;;34.20;18.65;;;;;;;11.11;79.38;98803.81;5091284;28;20358;-71
2022/10/23 04:11:32;;;;;;;35.58;19.58;;;;;;;11.15;79.17;98802.13;5090870;28;20023;-71
2022/10/23 04:13:57;;;;;;;36.20;19.42;;;;;;;11.14;79.97;98805.16;5091012;28;20061;-72
2022/10/23 04:16:23;;;;;;;37.17;20.27;;;;;;;11.13;78.82;98806.28;5091000;28;20111;-71
2022/10/23 04:18:49;;;;;;;37.08;20.00;;;;;;;11.14;78.97;98805.97;5091120;28;20020;-72
2022/10/23 04:21:14;;;;;;;39.03;20.88;;;;;;;11.12;79.23;98815.63;5090683;28;20115;-72
2022/10/23 04:23:40;;;;;;;42.95;22.50;;;;;;;11.11;79.17;98808.50;5090773;28;20115;-71
2022/10/23 04:26:06;;;;;;;49.72;24.65;;;;;;;11.09;78.99;98810.72;5091251;28;20393;-72
2022/10/23 04:28:31;;;;;;;38.00;20.15;;;;;;;11.08;79.95;98812.63;5080569;28;20039;-72
2022/10/23 04:30:57;;;;;;;36.67;20.83;;;;;;;11.06;79.86;98800.31;5070424;28;20443;-71
2022/10/23 04:33:22;;;;;;;41.35;21.67;;;;;;;11.04;79.45;98802.53;5070297;28;20056;-72
2022/10/23 04:35:48;;;;;;;37.47;20.90;;;;;;;11.01;79.98;98803.91;5070094;28;20033;-71
2022/10/23 04:38:13;;;;;;;38.50;20.98;;;;;;;11.01;79.58;98810.22;5070289;28;20024;-72
2022/10/23 04:40:38;;;;;;;45.28;22.70;;;;;;;11.00;79.25;98805.06;5070545;28;20123;-72
2022/10/23 04:43:04;;;;;;;44.47;22.13;;;;;;;10.99;78.86;98809.69;5070204;28;20028;-71
2022/10/23 04:45:29;;;;;;;39.83;21.00;;;;;;;10.98;79.65;98802.56;5069995;28;20028;-71
2022/10/23 04:47:55;;;;;;;41.67;22.13;;;;;;;10.96;79.49;98804.00;5070417;28;20024;-72
2022/10/23 04:50:21;;;;;;;43.22;22.63;;;;;;;10.90;79.95;98799.66;5070594;28;20166;-71
2022/10/23 04:52:47;;;;;;;41.72;22.50;;;;;;;10.88;79.25;98797.19;5070074;28;20531;-72
2022/10/23 04:55:13;;;;;;;39.78;21.77;;;;;;;10.88;79.63;98799.94;5070137;28;20028;-72
2022/10/23 04:57:38;;;;;;;43.75;22.35;;;;;;;10.87;79.58;98801.88;5070218;28;20021;-72
2022/10/23 05:00:08;;;;;;;40.60;21.48;;;;;;;10.86;79.68;98799.41;5070032;28;20033;-71
2022/10/23 05:02:33;;;;;;;45.35;22.15;;;;;;;10.86;80.19;98796.66;5070124;28;20021;-71
2022/10/23 05:04:59;;;;;;;42.08;22.60;;;;;;;10.87;79.15;98799.13;5070236;28;20102;-72
2022/10/23 05:07:24;;;;;;;45.97;22.80;;;;;;;10.87;79.32;98792.81;5069976;28;20095;-71
2022/10/23 05:09:49;;;;;;;47.50;25.38;;;;;;;10.87;79.64;98801.88;5070328;28;20489;-71
2022/10/23 05:12:15;;;;;;;42.85;21.67;;;;;;;10.85;79.79;98804.09;5070097;28;20028;-72
2022/10/23 05:14:40;;;;;;;45.88;23.02;;;;;;;10.86;79.40;98807.63;5069688;28;20032;-71
2022/10/23 05:17:18;;;;;;;41.70;22.00;;;;;;;10.87;79.42;98812.00;5069618;28;20024;-72
2022/10/23 05:19:50;;;;;;;42.13;21.23;;;;;;;10.90;79.66;98818.88;5069614;28;20028;-71
2022/10/23 05:22:18;;;;;;;41.03;21.00;;;;;;;10.89;79.61;98826.25;5069932;28;20470;-71
2022/10/23 05:24:44;;;;;;;38.05;20.05;;;;;;;10.88;79.60;98819.13;5069774;28;20514;-72
2022/10/23 05:27:09;;;;;;;37.78;19.63;;;;;;;10.86;79.58;98827.69;5069717;28;20024;-71
2022/10/23 05:29:34;;;;;;;36.63;17.85;;;;;;;10.89;79.78;98830.94;5085842;28;20048;-71
2022/10/23 05:32:03;;;;;;;37.67;19.40;;;;;;;10.88;79.87;98830.13;5071389;28;20060;-72
2022/10/23 05:34:31;;;;;;;33.72;18.17;;;;;;;10.88;80.08;98832.84;5089787;28;20039;-72
2022/10/23 05:36:57;;;;;;;33.83;17.70;;;;;;;10.87;79.98;98837.53;5079092;28;20021;-72
2022/10/23 05:39:22;;;;;;;31.85;16.55;;;;;;;10.89;79.75;98831.75;5069737;28;20404;-72
2022/10/23 05:41:48;;;;;;;35.20;18.65;;;;;;;10.90;79.82;98846.31;5069976;28;20031;-72
2022/10/23 05:44:14;;;;;;;32.17;17.00;;;;;;;10.91;79.86;98842.44;5069173;28;20024;-71
2022/10/23 05:46:41;;;;;;;30.38;16.20;;;;;;;10.95;80.00;98857.25;5070823;28;20032;-71
2022/10/23 05:49:06;;;;;;;34.25;17.45;;;;;;;10.96;79.87;98862.41;5073165;28;20075;-72
2022/10/23 05:51:35;;;;;;;32.05;16.63;;;;;;;10.98;80.06;98862.16;5073389;28;20020;-72
2022/10/23 05:54:00;;;;;;;31.20;16.13;;;;;;;10.98;79.96;98857.47;5072969;28;20032;-72
2022/10/23 05:56:26;;;;;;;36.90;18.50;;;;;;;10.98;80.27;98846.50;5055283;28;20020;-72
2022/10/23 05:58:51;;;;;;;30.17;16.63;;;;;;;10.97;80.52;98849.53;5072879;28;20107;-71
2022/10/23 06:01:17;;;;;;;28.98;16.23;;;;;;;10.95;79.77;98849.00;5073457;28;20393;-71
2022/10/23 06:03:42;;;;;;;31.48;17.38;;;;;;;10.93;79.68;98854.75;5072857;28;20016;-71
2022/10/23 06:06:08;;;;;;;31.73;17.67;;;;;;;10.92;79.78;98855.06;5073238;28;20067;-72
2022/10/23 06:08:34;;;;;;;32.92;17.33;;;;;;;10.93;79.77;98865.75;5072746;28;20355;-72
2022/10/23 06:11:11;;;;;;;32.50;18.63;;;;;;;10.92;80.46;98868.78;5073128;28;20043;-72
2022/10/23 06:13:37;;;;;;;31.48;16.73;;;;;;;10.92;80.16;98872.34;5072611;28;20036;-72
2022/10/23 06:16:10;;;;;;;30.73;15.80;;;;;;;10.95;79.84;98880.00;5084597;28;20028;-72
2022/10/23 06:18:35;;;;;;;32.75;17.27;;;;;;;10.96;80.43;98880.84;5092979;28;20517;-71
2022/10/23 06:21:01;;;;;;;32.88;17.15;;;;;;;10.96;79.92;98884.38;5093335;28;20028;-72
2022/10/23 06:23:28;;;;;;;32.35;17.95;;;;;;;10.98;80.85;98876.69;5092616;28;20038;-72
2022/10/23 06:25:55;;;;;;;32.55;17.33;;;;;;;10.95;80.43;98870.97;5093173;28;20393;-72
2022/10/23 06:28:20;;;;;;;29.85;16.75;;;;;;;10.98;80.58;98884.09;5084756;28;20417;-72
2022/10/23 06:30:46;;;;;;;29.70;16.90;;;;;;;10.99;80.08;98885.75;5072789;28;20029;-72
2022/10/23 06:33:11;;;;;;;28.35;15.45;;;;;;;11.03;80.42;98886.78;5072472;28;20040;-72
2022/10/23 06:35:36;;;;;;;29.48;15.75;;;;;;;11.02;80.62;98885.97;5072590;28;20108;-72
2022/10/23 06:38:02;;;;;;;25.40;14.35;;;;;;;11.05;80.21;98886.50;5054429;28;20028;-72
2022/10/23 06:40:28;;;;;;;32.00;17.48;;;;;;;11.08;80.04;98884.00;5072426;28;20032;-71
2022/10/23 06:42:57;;;;;;;28.52;16.38;;;;;;;11.12;80.25;98884.25;5074271;28;20052;-72
2022/10/23 06:45:22;;;;;;;28.73;17.50;;;;;;;11.17;79.90;98893.25;5074174;28;20025;-72
2022/10/23 06:47:51;;;;;;;25.63;15.27;;;;;;;11.22;80.27;98886.06;5072433;28;20635;-72
2022/10/23 06:50:16;;;;;;;28.17;15.38;;;;;;;11.27;80.46;98886.81;5055323;28;20029;-72
2022/10/23 06:52:42;;;;;;;28.10;14.75;;;;;;;11.30;79.84;98882.69;5078049;28;20024;-71
2022/10/23 06:55:08;;;;;;;23.35;13.93;;;;;;;11.32;80.31;98888.72;5092347;28;20496;-71
2022/10/23 06:57:33;;;;;;;22.13;13.15;;;;;;;11.35;80.05;98879.91;5092168;28;20080;-71
2022/10/23 06:59:59;;;;;;;18.77;11.40;;;;;;;11.38;79.41;98875.75;5092020;28;20853;-72
2022/10/23 07:02:24;;;;;;;20.00;12.73;;;;;;;11.44;79.38;98880.06;5088621;28;20041;-72
2022/10/23 07:04:49;;;;;;;18.75;12.38;;;;;;;11.46;79.58;98880.59;5091693;28;20573;-71
2022/10/23 07:07:15;;;;;;;20.38;12.82;;;;;;;11.49;79.48;98890.16;5091654;28;20028;-71
2022/10/23 07:09:40;;;;;;;21.00;12.73;;;;;;;11.52;79.75;98892.34;5091821;28;20103;-71
2022/10/23 07:12:06;;;;;;;19.25;11.95;;;;;;;11.54;79.85;98896.44;5091434;28;20405;-72
2022/10/23 07:14:31;;;;;;;19.35;12.10;;;;;;;11.58;79.49;98893.91;5091192;28;20028;-71
2022/10/23 07:16:58;;;;;;;19.30;12.10;;;;;;;11.60;79.34;98895.28;5091741;28;20393;-72
2022/10/23 07:19:23;;;;;;;19.48;11.55;;;;;;;11.62;79.54;98889.47;5091909;28;20063;-71
2022/10/23 07:21:49;;;;;;;21.88;12.27;;;;;;;11.62;78.97;98901.28;5091966;28;20031;-71
2022/10/23 07:24:15;;;;;;;21.05;12.98;;;;;;;11.55;78.97;98894.50;5085738;28;20378;-71
2022/10/23 07:26:40;;;;;;;25.02;14.77;;;;;;;11.52;78.70;98895.09;5053458;28;20029;-71
2022/10/23 07:29:06;;;;;;;23.73;14.95;;;;;;;11.51;79.32;98897.03;5082618;28;20421;-71
2022/10/23 07:31:32;;;;;;;25.55;14.60;;;;;;;11.51;79.21;98893.44;5091517;28;20737;-72
2022/10/23 07:33:57;;;;;;;25.55;14.35;;;;;;;11.54;79.50;98887.38;5091349;28;20028;-72
2022/10/23 07:36:23;;;;;;;22.13;12.85;;;;;;;11.59;78.96;98885.41;5091977;28;20028;-72
2022/10/23 07:38:49;;;;;;;19.67;12.45;;;;;;;11.64;78.88;98884.50;5087284;28;20028;-71
2022/10/23 07:41:15;;;;;;;22.77;14.18;;;;;;;11.69;79.15;98891.88;5091668;28;20024;-72
2022/10/23 07:43:41;;;;;;;22.70;13.88;;;;;;;11.74;78.85;98891.81;5091631;28;20089;-72
2022/10/23 07:46:08;;;;;;;22.88;16.08;;;;;;;11.76;79.12;98892.34;5075339;28;20107;-72
2022/10/23 07:48:34;;;;;;;22.90;13.88;;;;;;;11.79;78.71;98897.25;5053058;28;20429;-72
2022/10/23 07:51:06;;;;;;;21.85;13.45;;;;;;;11.81;79.18;98896.97;5083347;28;20042;-71
2022/10/23 07:53:33;;;;;;;20.17;12.40;;;;;;;11.83;79.32;98898.28;5091479;28;20035;-71
2022/10/23 07:56:01;;;;;;;21.77;13.23;;;;;;;11.87;78.75;98887.53;5076709;28;20110;-72
2022/10/23 07:58:27;;;;;;;24.73;14.40;;;;;;;11.91;79.30;98881.16;5070991;28;20024;-70
2022/10/23 08:01:01;;;;;;;24.33;13.32;;;;;;;11.99;79.31;98876.13;5071105;28;20056;-71
2022/10/23 08:03:28;;;;;;;18.92;12.45;;;;;;;12.08;79.38;98879.84;5070945;28;20067;-72
2022/10/23 08:05:54;;;;;;;21.45;13.20;;;;;;;12.14;78.83;98877.88;5053078;28;20038;-73
2022/10/23 08:08:21;;;;;;;26.13;16.67;;;;;;;12.19;79.17;98873.09;5070891;28;20115;-72
2022/10/23 08:10:49;;;;;;;21.08;12.93;;;;;;;12.21;78.82;98872.81;5090838;28;20111;-72
2022/10/23 08:13:15;;;;;;;18.98;11.82;;;;;;;12.25;78.54;98878.53;5075339;28;20024;-72
2022/10/23 08:15:42;;;;;;;23.77;14.48;;;;;;;12.28;78.45;98891.69;5076038;28;20032;-73
2022/10/23 08:18:07;;;;;;;22.30;13.68;;;;;;;12.31;78.57;98902.91;5083425;28;20529;-72
2022/10/23 08:20:40;;;;;;;25.00;13.80;;;;;;;12.33;78.72;98900.69;5089433;28;20066;-72
2022/10/23 08:23:06;;;;;;;21.90;13.15;;;;;;;12.34;78.74;98901.50;5067998;28;20100;-72
2022/10/23 08:25:32;;;;;;;24.30;14.57;;;;;;;12.36;78.69;98899.28;5068938;28;20103;-71
2022/10/23 08:27:57;;;;;;;25.92;15.00;;;;;;;12.40;78.62;98900.34;5073509;28;20016;-72
2022/10/23 08:30:22;;;;;;;25.08;15.60;;;;;;;12.42;78.43;98900.84;5078826;28;20077;-71
2022/10/23 08:32:48;;;;;;;21.20;13.65;;;;;;;12.42;78.67;98913.78;5069206;28;20044;-71
2022/10/23 08:35:13;;;;;;;28.67;17.05;;;;;;;12.46;78.59;98914.81;5049584;28;20835;-71
2022/10/23 08:37:39;;;;;;;25.00;15.25;;;;;;;12.50;78.56;98921.34;5069021;28;20081;-72
2022/10/23 08:40:05;;;;;;;24.95;15.10;;;;;;;12.55;78.45;98923.22;5085923;28;20119;-71
2022/10/23 08:42:36;;;;;;;21.20;13.75;;;;;;;12.60;78.09;98931.38;5089655;28;20474;-72
2022/10/23 08:45:10;;;;;;;27.75;16.88;;;;;;;12.64;78.01;98929.69;5089610;28;20691;-72
2022/10/23 08:47:47;;;;;;;21.58;13.43;;;;;;;12.62;77.89;98941.00;5077283;28;20032;-71
2022/10/23 08:50:24;;;;;;;21.42;14.43;;;;;;;12.62;77.83;98942.91;5069475;28;20033;-71
2022/10/23 08:52:59;;;;;;;28.83;19.42;;;;;;;12.60;77.88;98948.72;5069070;28;20025;-72
2022/10/23 08:55:38;;;;;;;22.13;13.57;;;;;;;12.60;77.90;98947.91;5068840;28;20518;-72
2022/10/23 08:58:14;;;;;;;25.45;14.70;;;;;;;12.59;77.76;98940.75;5069342;28;20027;-72
2022/10/23 09:00:48;;;;;;;20.63;13.50;;;;;;;12.61;77.81;98952.28;5069319;28;20033;-72
2022/10/23 09:03:14;;;;;;;19.95;13.02;;;;;;;12.64;78.24;98960.75;5069282;28;20483;-72
2022/10/23 09:06:14;;;;;;;18.88;11.98;;;;;;;12.68;77.58;98957.41;5068674;28;20115;-74
2022/10/23 09:09:01;;;;;;;19.25;12.35;;;;;;;12.71;77.55;98960.41;5051229;28;20099;-73
2022/10/23 09:11:42;;;;;;;15.98;10.10;;;;;;;12.70;77.07;98963.44;5076779;28;20535;-71
2022/10/23 09:14:17;;;;;;;16.02;9.93;;;;;;;12.72;77.30;98956.53;5088215;28;20444;-72
2022/10/23 09:17:09;;;;;;;16.58;9.75;;;;;;;12.76;77.11;98946.56;5088869;28;20078;-72
2022/10/23 09:19:35;;;;;;;16.17;10.07;;;;;;;12.81;77.40;98956.66;5033676;28;20040;-72
2022/10/23 09:22:00;;;;;;;17.98;11.32;;;;;;;12.87;77.42;98962.91;5072642;28;20017;-73
2022/10/23 09:24:30;;;;;;;16.77;10.52;;;;;;;12.91;77.20;98961.19;5092971;28;20500;-72
2022/10/23 09:26:56;;;;;;;;;;;;;;;12.92;77.29;98958.16;5093345;28;20029;-71
2022/10/23 09:29:25;;;;;;;14.82;9.77;;;;;;;12.91;77.00;98948.25;5076735;28;19919;-71
2022/10/23 09:31:57;;;;;;;17.15;10.45;;;;;;;12.93;76.97;98951.53;5072369;28;20115;-71
2022/10/23 09:34:28;;;;;;;15.13;10.88;;;;;;;12.97;76.75;98953.69;5072956;28;20028;-71
2022/10/23 09:36:58;;;;;;;14.73;9.10;;;;;;;12.98;77.05;98958.06;5054348;28;20028;-72
2022/10/23 09:39:34;;;;;;;18.00;10.05;;;;;;;12.98;76.50;98953.38;5072533;28;20027;-72
2022/10/23 09:42:12;;;;;;;15.65;10.52;;;;;;;13.01;76.84;98946.47;5072741;28;20432;-73
2022/10/23 09:44:47;;;;;;;16.25;10.63;;;;;;;13.02;76.68;98953.59;5054392;28;20041;-73
2022/10/23 09:47:18;;;;;;;16.67;11.00;;;;;;;13.02;76.70;98946.16;5080489;28;20035;-72
2022/10/23 09:50:02;;;;;;;15.70;10.77;;;;;;;13.05;76.52;98939.22;5071974;28;20024;-72
2022/10/23 09:52:38;;;;;;;16.27;10.68;;;;;;;13.09;76.76;98948.50;5072037;28;20083;-73
2022/10/23 09:55:20;;;;;;;15.90;10.85;;;;;;;13.14;76.49;98939.38;5072202;28;20039;-72
2022/10/23 09:57:46;;;;;;;19.58;12.80;;;;;;;13.19;76.35;98942.03;5070792;28;20031;-72
2022/10/23 10:00:17;;;;;;;17.65;11.82;;;;;;;13.20;76.30;98947.22;5071329;28;20020;-73
2022/10/23 10:02:55;;;;;;;15.68;9.45;;;;;;;13.22;76.28;98947.75;5069003;28;20039;-73
2022/10/23 10:05:24;;;;;;;15.15;10.00;;;;;;;13.23;75.96;98932.84;5071636;28;20020;-73
2022/10/23 10:08:05;;;;;;;12.50;8.75;;;;;;;13.30;75.81;98934.41;5053427;28;20036;-73
2022/10/23 10:11:15;;;;;;;12.13;8.02;;;;;;;13.29;75.67;98933.56;5070854;28;20020;-73
2022/10/23 10:13:53;;;;;;;13.75;8.10;;;;;;;13.32;75.76;98923.91;5047777;28;21405;-74
2022/10/23 10:16:42;;;;;;;11.15;7.25;;;;;;;13.38;75.26;98923.50;5071975;28;20028;-74
2022/10/23 10:19:35;;;;;;;12.73;7.53;;;;;;;13.44;75.54;98920.69;5071868;28;20032;-74
2022/10/23 10:22:21;;;;;;;10.18;7.13;;;;;;;13.53;75.48;98911.41;5054109;28;20513;-74
2022/10/23 10:25:08;;;;;;;11.25;7.03;;;;;;;13.63;74.99;98904.88;5071611;28;20029;-73
2022/10/23 10:28:00;;;;;;;11.75;7.25;;;;;;;13.66;74.70;98901.50;5069345;28;20074;-73
2022/10/23 10:30:37;;;;;;;10.38;6.95;;;;;;;13.70;74.47;98901.72;5071011;28;20024;-73
2022/10/23 10:33:02;;;;;;;13.52;9.07;;;;;;;13.72;74.47;98896.72;5069998;28;20143;-74
2022/10/23 10:35:30;;;;;;;17.33;9.23;;;;;;;13.75;74.61;98887.84;5053666;28;20501;-73
2022/10/23 10:38:17;;;;;;;11.70;8.45;;;;;;;13.82;74.51;98890.16;5082321;28;20028;-74
2022/10/23 10:40:54;;;;;;;11.50;7.38;;;;;;;13.86;74.02;98888.44;5091532;28;20028;-73
2022/10/23 10:43:20;;;;;;;19.95;11.05;;;;;;;13.87;73.95;98878.22;5092001;28;20035;-73
2022/10/23 10:46:18;;;;;;;39.47;17.83;;;;;;;13.87;73.71;98884.56;5091752;28;20040;-73
2022/10/23 10:48:56;;;;;;;18.27;10.73;;;;;;;13.92;73.77;98878.94;5052388;28;20038;-73
2022/10/23 10:51:28;;;;;;;14.02;9.55;;;;;;;13.95;73.95;98878.31;5091410;28;20046;-73
2022/10/23 10:54:15;;;;;;;13.07;9.23;;;;;;;14.02;73.58;98886.16;5091715;28;20025;-74
2022/10/23 10:56:44;;;;;;;12.18;9.23;;;;;;;14.10;73.24;98868.06;5091319;28;20035;-73
2022/10/23 10:59:18;;;;;;;12.07;8.60;;;;;;;14.16;73.80;98871.53;5091058;28;20081;-73
2022/10/23 11:01:48;;;;;;;19.25;11.38;;;;;;;14.24;73.81;98852.31;5091577;28;20027;-73
2022/10/23 11:04:29;;;;;;;31.63;15.50;;;;;;;14.36;73.71;98848.19;5091257;28;20028;-74
2022/10/23 11:06:57;;;;;;;13.18;9.75;;;;;;;14.46;73.23;98842.44;5091246;28;20035;-74
2022/10/23 11:09:28;;;;;;;12.38;9.40;;;;;;;14.53;73.04;98842.00;5091499;28;20020;-74
2022/10/23 11:11:54;;;;;;;14.88;7.97;;;;;;;14.59;73.49;98841.53;5071473;28;20676;-74
2022/10/23 11:14:31;;;;;;;14.85;8.00;;;;;;;14.67;73.38;98836.41;5066581;28;20048;-73
2022/10/23 11:17:23;;;;;;;11.13;8.10;;;;;;;14.82;73.06;98838.00;5066816;28;20064;-73
2022/10/23 11:19:58;;;;;;;12.43;8.43;;;;;;;14.93;72.91;98836.59;5066245;28;20028;-73
2022/10/23 11:22:42;;;;;;;12.20;8.43;;;;;;;15.03;72.83;98836.34;5065290;28;20237;-74
2022/10/23 11:25:16;;;;;;;26.45;14.95;;;;;;;15.14;72.60;98836.03;5067673;28;20025;-73
2022/10/23 11:28:04;;;;;;;12.02;8.50;;;;;;;15.25;72.67;98823.59;5069116;28;20064;-73
2022/10/23 11:30:47;;;;;;;12.27;7.80;;;;;;;15.34;72.06;98818.09;5062883;28;20059;-72
2022/10/23 11:33:43;;;;;;;9.77;7.03;;;;;;;15.34;71.65;98812.56;5070192;28;20052;-73